createdAt,value
2018-11-27T00:01:58.927Z,9.27
2018-11-27T00:12:02.331Z,9.53
2018-11-27T00:22:07.063Z,9.43
2018-11-27T00:32:11.167Z,8.83
2018-11-27T00:42:15.367Z,8.43
2018-11-27T00:52:19.597Z,9.70
2018-11-27T01:02:23.787Z,8.00
2018-11-27T01:12:27.949Z,7.07
2018-11-27T01:22:32.235Z,7.63
2018-11-27T01:32:36.330Z,6.87
2018-11-27T01:42:40.582Z,8.10
2018-11-27T01:52:44.762Z,6.60
2018-11-27T02:02:49.567Z,9.03
2018-11-27T02:12:54.622Z,6.73
2018-11-27T02:22:58.771Z,6.43
2018-11-27T02:33:02.869Z,6.80
2018-11-27T02:43:07.044Z,6.77
2018-11-27T02:53:11.183Z,6.33
2018-11-27T03:03:15.276Z,6.23
2018-11-27T03:13:19.504Z,6.77
2018-11-27T03:23:23.665Z,8.13
2018-11-27T03:33:27.753Z,5.57
2018-11-27T03:43:31.868Z,6.00
2018-11-27T03:53:36.102Z,5.83
2018-11-27T04:03:40.164Z,6.80
2018-11-27T04:13:44.420Z,5.90
2018-11-27T04:23:48.571Z,6.53
2018-11-27T04:33:52.714Z,5.77
2018-11-27T04:43:57.099Z,6.53
2018-11-27T04:54:01.243Z,5.97
2018-11-27T05:04:05.503Z,5.50
2018-11-27T05:14:09.602Z,4.40
2018-11-27T05:24:13.772Z,4.83
2018-11-27T05:34:17.947Z,4.57
2018-11-27T05:44:22.098Z,7.33
2018-11-27T05:54:26.271Z,11.20
2018-11-27T06:04:30.368Z,9.37
2018-11-27T06:14:34.544Z,6.63
2018-11-27T06:24:38.629Z,5.87
2018-11-27T06:34:43.152Z,6.07
2018-11-27T06:44:46.965Z,5.83
2018-11-27T06:54:51.187Z,5.17
2018-11-27T07:04:55.339Z,4.63
2018-11-27T07:14:59.569Z,5.17
2018-11-27T07:25:04.065Z,5.73
2018-11-27T07:35:09.801Z,5.90
2018-11-27T07:45:17.042Z,6.80
2018-11-27T07:55:22.342Z,9.83
2018-11-27T08:05:29.622Z,21.67
2018-11-27T08:15:34.052Z,24.20
2018-11-27T08:25:38.216Z,26.17
2018-11-27T08:35:42.348Z,23.03
2018-11-27T08:45:46.488Z,23.43
2018-11-27T08:55:50.730Z,22.00
2018-11-27T09:05:54.865Z,19.77
2018-11-27T09:15:58.955Z,18.37
2018-11-27T09:26:03.031Z,15.87
2018-11-27T09:36:07.460Z,15.57
2018-11-27T09:46:11.576Z,14.03
2018-11-27T09:56:16.010Z,12.23
2018-11-27T10:06:20.421Z,13.30
2018-11-27T10:16:24.740Z,13.73
2018-11-27T10:26:29.070Z,12.03
2018-11-27T10:36:33.449Z,10.40
2018-11-27T10:46:37.603Z,9.13
2018-11-27T10:56:41.903Z,9.63
2018-11-27T11:06:46.099Z,8.90
2018-11-27T11:16:50.336Z,8.57
2018-11-27T11:26:54.480Z,9.30
2018-11-27T11:36:58.574Z,7.83
2018-11-27T11:47:03.161Z,7.27
2018-11-27T11:57:07.393Z,7.77
2018-11-27T12:07:11.738Z,8.20
2018-11-27T12:17:16.129Z,6.93
2018-11-27T12:27:20.401Z,7.23
2018-11-27T12:37:24.571Z,7.07
2018-11-27T12:47:28.652Z,7.37
2018-11-27T12:57:32.781Z,6.60
2018-11-27T13:07:36.939Z,6.30
2018-11-27T13:17:41.286Z,6.70
2018-11-27T13:27:45.570Z,6.00
2018-11-27T13:37:49.739Z,7.20
2018-11-27T13:47:54.055Z,7.10
2018-11-27T13:57:58.206Z,7.40
2018-11-27T14:08:02.409Z,8.23
2018-11-27T14:18:07.160Z,7.80
2018-11-27T14:28:11.333Z,9.03
2018-11-27T14:38:15.587Z,9.57
2018-11-27T14:48:19.760Z,9.30
2018-11-27T14:58:23.964Z,9.20
2018-11-27T15:08:28.215Z,8.67
2018-11-27T15:18:32.643Z,10.03
2018-11-27T15:28:36.971Z,10.13
2018-11-27T15:38:41.203Z,10.07
2018-11-27T15:48:45.398Z,7.40
2018-11-27T15:58:49.561Z,8.57
2018-11-27T16:08:53.739Z,9.53
2018-11-27T16:18:57.983Z,12.10
2018-11-27T16:29:02.153Z,6.70
2018-11-27T16:39:11.063Z,8.27
2018-11-27T16:49:15.203Z,11.93
2018-11-27T16:59:19.482Z,10.03
2018-11-27T17:09:23.725Z,9.10
2018-11-27T17:19:27.825Z,10.17
2018-11-27T17:29:31.968Z,10.90
2018-11-27T17:39:36.085Z,10.13
2018-11-27T17:49:40.428Z,8.90
2018-11-27T17:59:44.541Z,9.03
2018-11-27T18:09:48.761Z,11.33
2018-11-27T18:19:52.984Z,13.07
2018-11-27T18:29:57.168Z,14.63
2018-11-27T18:40:01.291Z,11.57
2018-11-27T18:50:07.680Z,11.40
2018-11-27T19:00:21.502Z,9.97
2018-11-27T19:10:30.788Z,11.40
2018-11-27T19:20:34.998Z,11.23
2018-11-27T19:30:39.337Z,14.73
2018-11-27T19:40:43.732Z,18.30
2018-11-27T19:50:48.008Z,18.17
2018-11-27T20:00:52.256Z,18.30
2018-11-27T20:10:56.363Z,17.13
2018-11-27T20:21:00.489Z,17.87
2018-11-27T20:31:04.629Z,15.43
2018-11-27T20:41:08.814Z,16.47
2018-11-27T20:51:12.958Z,15.33
2018-11-27T21:01:17.199Z,16.00
2018-11-27T21:11:21.666Z,14.67
2018-11-27T21:21:26.008Z,14.23
2018-11-27T21:31:30.246Z,14.83
2018-11-27T21:41:34.387Z,14.73
2018-11-27T21:51:38.578Z,15.70
2018-11-27T22:01:42.702Z,15.43
2018-11-27T22:11:46.912Z,14.57
2018-11-27T22:21:51.095Z,15.50
2018-11-27T22:31:55.330Z,14.10
2018-11-27T22:41:59.423Z,15.27
2018-11-27T22:52:03.677Z,15.50
2018-11-27T23:02:07.800Z,15.93
2018-11-27T23:12:12.143Z,14.33
2018-11-27T23:22:16.378Z,15.73
2018-11-27T23:32:20.494Z,16.10
2018-11-27T23:42:24.722Z,16.13
2018-11-27T23:52:28.965Z,16.07
